createdAt,value
2023-02-25T00:01:19.975Z,5.40
2023-02-25T00:03:46.959Z,5.40
2023-02-25T00:06:14.678Z,5.40
2023-02-25T00:08:45.973Z,5.50
2023-02-25T00:11:14.478Z,5.40
2023-02-25T00:13:42.699Z,5.50
2023-02-25T00:16:10.114Z,5.50
2023-02-25T00:18:37.312Z,5.50
2023-02-25T00:21:06.107Z,5.50
2023-02-25T00:23:32.907Z,5.50
2023-02-25T00:26:02.024Z,5.50
2023-02-25T00:28:28.986Z,5.50
2023-02-25T00:30:55.882Z,5.50
2023-02-25T00:33:22.773Z,5.50
2023-02-25T00:35:52.745Z,5.50
2023-02-25T00:38:19.392Z,5.40
2023-02-25T00:40:46.094Z,5.30
2023-02-25T00:43:12.807Z,5.20
2023-02-25T00:45:42.898Z,5.10
2023-02-25T00:48:09.593Z,5.20
2023-02-25T00:50:36.719Z,5.10
2023-02-25T00:53:03.349Z,5.00
2023-02-25T00:55:33.506Z,4.90
2023-02-25T00:58:03.202Z,4.90
2023-02-25T01:00:30.607Z,4.90
2023-02-25T01:02:58.513Z,4.80
2023-02-25T01:05:25.251Z,4.90
2023-02-25T01:07:52.200Z,5.00
2023-02-25T01:10:19.034Z,4.80
2023-02-25T01:12:46.068Z,4.90
2023-02-25T01:15:13.391Z,4.80
2023-02-25T01:17:40.261Z,4.80
2023-02-25T01:20:11.529Z,4.80
2023-02-25T01:22:41.645Z,4.80
2023-02-25T01:25:13.233Z,4.70
2023-02-25T01:27:40.253Z,4.70
2023-02-25T01:30:08.303Z,4.60
2023-02-25T01:32:35.362Z,4.70
2023-02-25T01:35:02.359Z,4.70
2023-02-25T01:37:29.439Z,4.80
2023-02-25T01:39:56.182Z,4.70
2023-02-25T01:42:24.077Z,4.70
2023-02-25T01:45:19.129Z,4.80
2023-02-25T01:48:14.825Z,4.80
2023-02-25T01:50:48.926Z,4.90
2023-02-25T01:53:20.099Z,4.90
2023-02-25T01:55:47.695Z,4.80
2023-02-25T01:58:14.650Z,4.70
2023-02-25T02:00:41.635Z,4.80
2023-02-25T02:03:15.900Z,4.80
2023-02-25T02:05:58.420Z,4.70
2023-02-25T02:08:26.405Z,4.70
2023-02-25T02:10:53.293Z,4.70
2023-02-25T02:13:20.597Z,4.70
2023-02-25T02:16:14.549Z,4.80
2023-02-25T02:18:55.956Z,4.80
2023-02-25T02:21:35.310Z,4.80
2023-02-25T02:24:35.974Z,4.90
2023-02-25T02:27:09.488Z,5.00
2023-02-25T02:30:05.027Z,5.00
2023-02-25T02:32:55.085Z,5.00
2023-02-25T02:35:38.523Z,5.00
2023-02-25T02:38:14.479Z,4.90
2023-02-25T02:41:02.377Z,4.90
2023-02-25T02:43:44.388Z,5.00
2023-02-25T02:46:20.502Z,4.90
2023-02-25T02:48:56.655Z,4.90
2023-02-25T02:51:29.795Z,4.80
2023-02-25T02:53:59.737Z,4.90
2023-02-25T02:56:28.566Z,4.60
2023-02-25T02:59:23.858Z,4.60
2023-02-25T03:01:55.620Z,4.50
2023-02-25T03:04:29.633Z,4.60
2023-02-25T03:07:01.746Z,4.70
2023-02-25T03:09:46.275Z,4.70
2023-02-25T03:12:13.105Z,4.70
2023-02-25T03:14:40.042Z,4.60
2023-02-25T03:17:09.199Z,4.50
2023-02-25T03:19:44.810Z,4.50
2023-02-25T03:22:13.535Z,4.40
2023-02-25T03:24:48.874Z,4.40
2023-02-25T03:27:23.413Z,4.30
2023-02-25T03:29:50.427Z,4.40
2023-02-25T03:32:19.917Z,4.30
2023-02-25T03:34:49.703Z,4.30
2023-02-25T03:37:23.530Z,4.50
2023-02-25T03:39:55.665Z,4.50
2023-02-25T03:42:31.085Z,4.50
2023-02-25T03:45:01.748Z,4.50
2023-02-25T03:47:31.469Z,4.40
2023-02-25T03:50:07.871Z,4.50
2023-02-25T03:52:35.554Z,4.30
2023-02-25T03:55:03.463Z,4.30
2023-02-25T03:57:42.668Z,4.30
2023-02-25T04:00:19.004Z,4.20
2023-02-25T04:02:47.389Z,4.30
2023-02-25T04:05:15.741Z,4.30
2023-02-25T04:07:42.603Z,4.40
2023-02-25T04:10:11.470Z,4.40
2023-02-25T04:12:38.675Z,4.50
2023-02-25T04:15:06.850Z,4.50
2023-02-25T04:17:34.375Z,4.50
2023-02-25T04:20:01.034Z,4.50
2023-02-25T04:22:27.817Z,4.50
2023-02-25T04:24:54.489Z,4.50
2023-02-25T04:27:21.223Z,4.50
2023-02-25T04:29:47.913Z,4.50
2023-02-25T04:32:14.827Z,4.50
2023-02-25T04:34:41.624Z,4.40
2023-02-25T04:37:10.020Z,4.40
2023-02-25T04:39:37.131Z,4.30
2023-02-25T04:42:04.039Z,4.10
2023-02-25T04:44:31.080Z,4.10
2023-02-25T04:46:57.884Z,4.10
2023-02-25T04:49:24.919Z,4.20
2023-02-25T04:51:52.368Z,4.30
2023-02-25T04:54:20.188Z,4.40
2023-02-25T04:56:48.660Z,4.40
2023-02-25T04:59:16.173Z,4.40
2023-02-25T05:01:43.178Z,4.50
2023-02-25T05:04:10.041Z,4.50
2023-02-25T05:06:37.007Z,4.50
2023-02-25T05:09:03.985Z,4.50
2023-02-25T05:11:30.735Z,4.50
2023-02-25T05:13:58.382Z,4.40
2023-02-25T05:16:25.925Z,4.40
2023-02-25T05:18:55.536Z,4.30
2023-02-25T05:21:25.043Z,4.30
2023-02-25T05:23:53.925Z,4.30
2023-02-25T05:26:23.818Z,4.10
2023-02-25T05:28:53.553Z,4.20
2023-02-25T05:31:21.448Z,4.30
2023-02-25T05:33:48.177Z,4.10
2023-02-25T05:36:16.429Z,4.20
2023-02-25T05:38:44.076Z,4.10
2023-02-25T05:41:12.024Z,4.20
2023-02-25T05:43:40.349Z,4.20
2023-02-25T05:46:11.922Z,4.20
2023-02-25T05:48:40.740Z,4.30
2023-02-25T05:51:19.424Z,4.30
2023-02-25T05:53:48.048Z,4.30
2023-02-25T05:56:21.028Z,4.20
2023-02-25T05:58:48.570Z,4.20
2023-02-25T06:01:18.657Z,4.30
2023-02-25T06:03:47.145Z,4.30
2023-02-25T06:06:16.520Z,4.40
2023-02-25T06:08:46.938Z,4.10
2023-02-25T06:11:19.096Z,4.10
2023-02-25T06:13:48.805Z,4.10
2023-02-25T06:16:16.183Z,4.10
2023-02-25T06:18:43.072Z,4.20
2023-02-25T06:21:12.553Z,4.20
2023-02-25T06:23:40.851Z,4.30
2023-02-25T06:26:09.325Z,4.40
2023-02-25T06:28:36.338Z,4.40
2023-02-25T06:31:06.668Z,4.40
2023-02-25T06:33:33.364Z,4.40
2023-02-25T06:36:00.086Z,4.40
2023-02-25T06:38:26.797Z,4.50
2023-02-25T06:40:53.534Z,4.20
2023-02-25T06:43:20.239Z,3.90
2023-02-25T06:45:46.962Z,4.10
2023-02-25T06:48:13.724Z,3.80
2023-02-25T06:50:43.306Z,3.80
2023-02-25T06:53:10.361Z,3.80
2023-02-25T06:55:39.190Z,3.90
2023-02-25T06:58:06.140Z,3.80
2023-02-25T07:00:33.013Z,3.90
2023-02-25T07:03:03.146Z,3.60
2023-02-25T07:05:29.991Z,3.90
2023-02-25T07:07:56.982Z,4.10
2023-02-25T07:10:23.703Z,4.20
2023-02-25T07:12:52.079Z,4.30
2023-02-25T07:15:20.369Z,4.10
2023-02-25T07:17:47.646Z,4.10
2023-02-25T07:20:14.547Z,4.10
2023-02-25T07:22:43.976Z,4.20
2023-02-25T07:25:11.820Z,4.20
2023-02-25T07:27:44.643Z,4.20
2023-02-25T07:30:15.452Z,4.30
2023-02-25T07:32:43.059Z,4.40
2023-02-25T07:35:10.947Z,4.40
2023-02-25T07:37:38.061Z,4.50
2023-02-25T07:40:14.251Z,4.50
2023-02-25T07:42:41.870Z,4.30
2023-02-25T07:45:10.174Z,4.30
2023-02-25T07:47:38.015Z,4.30
2023-02-25T07:50:06.948Z,4.40
2023-02-25T07:52:33.681Z,4.40
2023-02-25T07:55:00.503Z,4.40
2023-02-25T07:57:28.454Z,4.60
2023-02-25T07:59:55.343Z,4.60
2023-02-25T08:02:22.126Z,4.70
2023-02-25T08:04:48.930Z,4.80
2023-02-25T08:07:15.704Z,4.90
2023-02-25T08:09:43.113Z,4.90
2023-02-25T08:12:09.912Z,5.00
2023-02-25T08:14:37.678Z,4.90
2023-02-25T08:17:04.377Z,5.00
2023-02-25T08:19:31.071Z,5.10
2023-02-25T08:21:57.936Z,5.10
2023-02-25T08:24:24.715Z,5.10
2023-02-25T08:26:51.540Z,5.20
2023-02-25T08:29:18.303Z,5.20
2023-02-25T08:31:47.067Z,5.40
2023-02-25T08:34:14.002Z,5.40
2023-02-25T08:36:40.793Z,5.30
2023-02-25T08:39:09.042Z,5.30
2023-02-25T08:41:36.477Z,5.30
2023-02-25T08:44:03.710Z,5.00
2023-02-25T08:46:32.516Z,5.00
2023-02-25T08:48:59.915Z,5.10
2023-02-25T08:51:36.588Z,5.10
2023-02-25T08:54:09.668Z,5.10
2023-02-25T08:56:37.101Z,5.10
2023-02-25T08:59:04.930Z,5.10
2023-02-25T09:01:44.860Z,5.20
2023-02-25T09:04:17.290Z,5.20
2023-02-25T09:06:47.390Z,5.30
2023-02-25T09:09:15.756Z,5.30
2023-02-25T09:11:43.518Z,5.30
2023-02-25T09:14:10.975Z,5.40
2023-02-25T09:16:38.011Z,5.50
2023-02-25T09:19:04.768Z,5.50
2023-02-25T09:21:31.860Z,5.60
2023-02-25T09:23:59.427Z,5.70
2023-02-25T09:26:26.148Z,5.60
2023-02-25T09:28:52.884Z,5.80
2023-02-25T09:31:19.845Z,6.00
2023-02-25T09:33:46.679Z,6.20
2023-02-25T09:36:16.876Z,6.20
2023-02-25T09:38:44.975Z,6.10
2023-02-25T09:41:36.792Z,6.00
2023-02-25T09:44:29.629Z,5.90
2023-02-25T09:47:12.781Z,6.00
2023-02-25T09:49:48.486Z,6.20
2023-02-25T09:52:31.906Z,6.30
2023-02-25T09:55:18.974Z,6.40
2023-02-25T09:57:56.434Z,6.40
2023-02-25T10:00:23.887Z,6.50
2023-02-25T10:03:08.063Z,6.80
2023-02-25T10:06:07.549Z,7.10
2023-02-25T10:08:51.754Z,7.10
2023-02-25T10:11:34.590Z,6.80
2023-02-25T10:14:29.305Z,6.70
2023-02-25T10:17:47.912Z,6.90
2023-02-25T10:20:38.900Z,7.00
2023-02-25T10:23:23.672Z,7.50
2023-02-25T10:26:18.209Z,7.50
2023-02-25T10:28:50.515Z,7.50
2023-02-25T10:31:22.271Z,7.40
2023-02-25T10:33:51.978Z,7.60
2023-02-25T10:36:35.777Z,7.60
2023-02-25T10:39:02.568Z,7.60
2023-02-25T10:41:30.524Z,7.90
2023-02-25T10:43:57.862Z,8.20
2023-02-25T10:46:40.378Z,8.40
2023-02-25T10:49:23.130Z,8.60
2023-02-25T10:52:01.128Z,8.60
2023-02-25T10:54:27.993Z,8.60
2023-02-25T10:56:55.611Z,8.40
2023-02-25T10:59:30.059Z,8.00
2023-02-25T11:01:59.731Z,7.80
2023-02-25T11:04:34.808Z,7.60
2023-02-25T11:07:01.662Z,7.50
2023-02-25T11:09:32.434Z,7.20
2023-02-25T11:12:09.076Z,7.10
2023-02-25T11:14:37.481Z,7.10
2023-02-25T11:17:21.857Z,7.10
2023-02-25T11:19:59.607Z,6.90
2023-02-25T11:22:38.151Z,6.90
2023-02-25T11:25:15.642Z,7.00
2023-02-25T11:27:45.184Z,7.00
2023-02-25T11:30:19.841Z,7.10
2023-02-25T11:32:55.043Z,7.20
2023-02-25T11:35:30.551Z,7.10
2023-02-25T11:38:24.387Z,7.00
2023-02-25T11:40:51.317Z,7.00
2023-02-25T11:43:27.244Z,6.90
2023-02-25T11:46:04.096Z,6.90
2023-02-25T11:49:00.179Z,7.00
2023-02-25T11:51:31.641Z,7.20
2023-02-25T11:54:24.608Z,7.20
2023-02-25T11:56:57.383Z,7.30
2023-02-25T11:59:55.197Z,7.40
2023-02-25T12:02:44.639Z,7.40
2023-02-25T12:05:43.609Z,7.40
2023-02-25T12:08:19.533Z,7.40
2023-02-25T12:11:04.916Z,7.20
2023-02-25T12:14:09.672Z,7.20
2023-02-25T12:17:04.555Z,7.00
2023-02-25T12:19:41.073Z,6.90
2023-02-25T12:22:29.337Z,6.90
2023-02-25T12:25:15.437Z,7.00
2023-02-25T12:28:06.049Z,7.10
2023-02-25T12:30:51.683Z,7.20
2023-02-25T12:33:39.571Z,7.10
2023-02-25T12:36:31.508Z,7.30
2023-02-25T12:39:27.096Z,7.30
2023-02-25T12:42:02.968Z,7.40
2023-02-25T12:44:47.545Z,7.50
2023-02-25T12:47:18.160Z,7.40
2023-02-25T12:50:19.227Z,7.50
2023-02-25T12:53:07.541Z,7.50
2023-02-25T12:56:17.093Z,7.50
2023-02-25T12:58:55.855Z,7.40
2023-02-25T13:01:26.513Z,7.30
2023-02-25T13:04:12.049Z,7.50
2023-02-25T13:07:03.298Z,7.60
2023-02-25T13:09:46.712Z,7.80
2023-02-25T13:12:23.270Z,7.90
2023-02-25T13:14:56.867Z,7.70
2023-02-25T13:17:38.620Z,7.60
2023-02-25T13:20:43.636Z,7.50
2023-02-25T13:23:48.215Z,7.80
2023-02-25T13:26:33.413Z,7.90
2023-02-25T13:29:12.445Z,7.70
2023-02-25T13:32:21.682Z,7.60
2023-02-25T13:35:03.910Z,7.50
2023-02-25T13:37:50.250Z,7.40
2023-02-25T13:40:23.705Z,7.50
2023-02-25T13:43:22.374Z,7.30
2023-02-25T13:46:05.547Z,7.00
2023-02-25T13:48:46.642Z,6.90
2023-02-25T13:51:47.764Z,6.90
2023-02-25T13:54:31.240Z,7.00
2023-02-25T13:57:24.827Z,7.00
2023-02-25T14:00:04.493Z,7.00
2023-02-25T14:02:34.031Z,7.20
2023-02-25T14:05:15.934Z,8.50
2023-02-25T14:08:09.990Z,10.40
2023-02-25T14:10:54.354Z,10.10
2023-02-25T14:13:23.873Z,9.40
2023-02-25T14:16:05.436Z,8.80
2023-02-25T14:18:44.255Z,8.20
2023-02-25T14:21:29.015Z,8.20
2023-02-25T14:23:55.611Z,7.90
2023-02-25T14:26:40.881Z,7.50
2023-02-25T14:29:42.944Z,7.40
2023-02-25T14:32:29.916Z,7.30
2023-02-25T14:35:16.852Z,7.30
2023-02-25T14:38:15.032Z,7.30
2023-02-25T14:40:48.497Z,7.10
2023-02-25T14:43:29.318Z,7.00
2023-02-25T14:46:23.038Z,6.80
2023-02-25T14:49:20.967Z,6.60
2023-02-25T14:52:25.309Z,6.60
2023-02-25T14:55:33.863Z,6.50
2023-02-25T14:58:22.078Z,6.50
2023-02-25T15:01:07.604Z,6.20
2023-02-25T15:04:17.102Z,6.10
2023-02-25T15:07:08.864Z,5.80
2023-02-25T15:10:06.448Z,5.90
2023-02-25T15:13:02.734Z,5.90
2023-02-25T15:16:06.739Z,6.10
2023-02-25T15:19:08.267Z,6.20
2023-02-25T15:21:45.244Z,6.20
2023-02-25T15:24:38.585Z,6.00
2023-02-25T15:27:41.926Z,6.00
2023-02-25T15:30:08.991Z,5.80
2023-02-25T15:33:13.623Z,5.90
2023-02-25T15:35:40.426Z,5.90
2023-02-25T15:38:40.511Z,5.90
2023-02-25T15:41:38.439Z,5.90
2023-02-25T15:44:08.081Z,5.90
2023-02-25T15:46:34.889Z,5.80
2023-02-25T15:49:07.853Z,5.80
2023-02-25T15:51:51.523Z,5.80
2023-02-25T15:54:30.445Z,5.70
2023-02-25T15:57:01.278Z,5.70
2023-02-25T15:59:43.292Z,5.70
2023-02-25T16:02:46.390Z,5.60
2023-02-25T16:05:20.389Z,5.50
2023-02-25T16:07:49.813Z,5.50
2023-02-25T16:10:23.273Z,5.50
2023-02-25T16:12:53.061Z,5.50
2023-02-25T16:15:43.328Z,5.50
2023-02-25T16:18:31.434Z,5.40
2023-02-25T16:21:07.303Z,5.40
2023-02-25T16:23:39.803Z,5.40
2023-02-25T16:26:25.458Z,5.30
2023-02-25T16:29:19.760Z,5.20
2023-02-25T16:32:09.044Z,5.00
2023-02-25T16:35:01.231Z,5.00
2023-02-25T16:37:57.091Z,5.10
2023-02-25T16:40:39.828Z,5.10
2023-02-25T16:43:12.757Z,5.20
2023-02-25T16:45:47.111Z,5.10
2023-02-25T16:48:22.864Z,5.00
2023-02-25T16:50:51.259Z,5.00
2023-02-25T16:53:23.919Z,4.90
2023-02-25T16:55:57.098Z,4.90
2023-02-25T16:58:26.057Z,4.90
2023-02-25T17:01:03.970Z,4.90
2023-02-25T17:03:41.485Z,4.90
2023-02-25T17:06:17.189Z,4.80
2023-02-25T17:08:50.924Z,4.80
2023-02-25T17:11:23.589Z,4.70
2023-02-25T17:13:52.836Z,4.60
2023-02-25T17:16:43.589Z,4.60
2023-02-25T17:19:11.653Z,4.70
2023-02-25T17:21:42.049Z,4.70
2023-02-25T17:24:13.875Z,4.70
2023-02-25T17:26:47.385Z,4.70
2023-02-25T17:29:16.452Z,4.80
2023-02-25T17:31:54.580Z,4.90
2023-02-25T17:34:33.023Z,4.80
2023-02-25T17:37:05.753Z,4.80
2023-02-25T17:39:33.991Z,4.90
2023-02-25T17:42:00.856Z,4.90
2023-02-25T17:44:36.695Z,4.90
2023-02-25T17:47:05.200Z,4.90
2023-02-25T17:49:34.460Z,4.90
2023-02-25T17:52:08.109Z,4.90
2023-02-25T17:54:37.398Z,4.90
2023-02-25T17:57:14.714Z,4.90
2023-02-25T17:59:43.774Z,4.90
2023-02-25T18:02:36.859Z,4.90
2023-02-25T18:05:12.753Z,4.90
2023-02-25T18:08:03.538Z,4.80
2023-02-25T18:10:33.281Z,4.80
2023-02-25T18:13:02.632Z,4.80
2023-02-25T18:15:33.219Z,4.80
2023-02-25T18:18:01.478Z,4.70
2023-02-25T18:20:32.937Z,4.80
2023-02-25T18:23:08.341Z,4.80
2023-02-25T18:25:36.750Z,4.80
2023-02-25T18:28:05.525Z,4.80
2023-02-25T18:30:33.090Z,4.70
2023-02-25T18:33:00.424Z,4.70
2023-02-25T18:35:29.433Z,4.60
2023-02-25T18:37:57.752Z,4.50
2023-02-25T18:40:39.660Z,4.60
2023-02-25T18:43:07.235Z,4.50
2023-02-25T18:45:34.650Z,4.50
2023-02-25T18:48:01.776Z,4.50
2023-02-25T18:50:32.854Z,4.50
2023-02-25T18:53:00.971Z,4.60
2023-02-25T18:55:30.517Z,4.60
2023-02-25T18:57:57.629Z,4.60
2023-02-25T19:00:27.399Z,4.60
2023-02-25T19:02:57.979Z,4.60
2023-02-25T19:05:26.380Z,4.50
2023-02-25T19:07:53.349Z,4.40
2023-02-25T19:10:23.267Z,4.40
2023-02-25T19:12:50.881Z,4.20
2023-02-25T19:15:20.641Z,4.00
2023-02-25T19:17:49.220Z,4.00
2023-02-25T19:20:18.520Z,3.90
2023-02-25T19:22:47.696Z,3.90
2023-02-25T19:25:25.168Z,3.90
2023-02-25T19:27:53.954Z,3.90
2023-02-25T19:30:24.918Z,3.90
2023-02-25T19:32:52.410Z,3.90
2023-02-25T19:35:19.134Z,3.90
2023-02-25T19:37:45.923Z,3.60
2023-02-25T19:40:15.880Z,3.70
2023-02-25T19:42:44.571Z,3.80
2023-02-25T19:45:14.764Z,3.80
2023-02-25T19:47:41.764Z,3.80
2023-02-25T19:50:09.891Z,3.80
2023-02-25T19:52:36.576Z,3.80
2023-02-25T19:55:05.014Z,3.80
2023-02-25T19:57:32.137Z,3.70
2023-02-25T19:59:59.201Z,3.70
2023-02-25T20:02:25.957Z,3.70
2023-02-25T20:04:52.750Z,3.70
2023-02-25T20:07:19.391Z,3.70
2023-02-25T20:09:46.093Z,3.70
2023-02-25T20:12:12.783Z,3.70
2023-02-25T20:14:39.482Z,3.70
2023-02-25T20:17:06.228Z,3.60
2023-02-25T20:19:33.051Z,3.50
2023-02-25T20:22:01.691Z,3.40
2023-02-25T20:24:29.672Z,3.30
2023-02-25T20:26:56.753Z,3.20
2023-02-25T20:29:23.530Z,3.30
2023-02-25T20:31:50.317Z,3.40
2023-02-25T20:34:20.677Z,3.20
2023-02-25T20:36:58.791Z,2.90
2023-02-25T20:39:37.707Z,2.60
2023-02-25T20:42:06.811Z,1.90
2023-02-25T20:44:33.691Z,1.80
2023-02-25T20:47:00.505Z,1.80
2023-02-25T20:49:27.496Z,1.70
2023-02-25T20:51:54.488Z,1.60
2023-02-25T20:54:21.286Z,1.60
2023-02-25T20:56:49.169Z,1.70
2023-02-25T20:59:17.152Z,1.70
2023-02-25T21:01:44.159Z,1.80
2023-02-25T21:04:11.528Z,1.80
2023-02-25T21:06:38.479Z,1.70
2023-02-25T21:12:51.840Z,1.80
2023-02-25T21:15:18.788Z,1.80
2023-02-25T21:17:45.663Z,1.80
2023-02-25T21:20:12.632Z,1.80
2023-02-25T21:22:39.312Z,1.80
2023-02-25T21:25:06.127Z,1.80
2023-02-25T21:27:32.782Z,1.80
2023-02-25T21:29:59.408Z,1.90
2023-02-25T21:32:26.061Z,1.80
2023-02-25T21:34:52.873Z,1.90
2023-02-25T21:37:19.498Z,1.90
2023-02-25T21:39:46.382Z,1.90
2023-02-25T21:42:13.067Z,1.80
2023-02-25T21:44:39.681Z,1.80
2023-02-25T21:47:06.870Z,1.80
2023-02-25T21:49:33.766Z,1.80
2023-02-25T21:52:00.564Z,1.80
2023-02-25T21:54:27.510Z,1.80
2023-02-25T21:56:54.226Z,1.90
2023-02-25T21:59:21.043Z,2.00
2023-02-25T22:01:47.866Z,2.10
2023-02-25T22:04:14.872Z,2.00
2023-02-25T22:06:43.094Z,2.10
2023-02-25T22:09:09.864Z,2.10
2023-02-25T22:11:37.700Z,2.00
2023-02-25T22:14:07.098Z,2.00
2023-02-25T22:16:35.702Z,2.00
2023-02-25T22:19:02.452Z,2.00
2023-02-25T22:21:31.351Z,2.00
2023-02-25T22:24:00.872Z,1.90
2023-02-25T22:26:29.836Z,2.00
2023-02-25T22:28:58.915Z,2.00
2023-02-25T22:31:26.539Z,2.00
2023-02-25T22:33:53.925Z,2.00
2023-02-25T22:36:20.765Z,2.10
2023-02-25T22:38:48.893Z,1.90
2023-02-25T22:41:25.907Z,1.90
2023-02-25T22:43:52.839Z,2.00
2023-02-25T22:46:25.777Z,1.90
2023-02-25T22:48:53.356Z,1.70
2023-02-25T22:51:26.002Z,1.70
2023-02-25T22:53:53.453Z,1.80
2023-02-25T22:56:20.582Z,1.80
2023-02-25T22:58:47.662Z,1.70
2023-02-25T23:01:15.935Z,1.60
2023-02-25T23:03:43.992Z,1.50
2023-02-25T23:06:12.083Z,1.30
2023-02-25T23:08:39.279Z,1.10
2023-02-25T23:11:22.069Z,1.10
2023-02-25T23:13:51.577Z,1.20
2023-02-25T23:16:24.843Z,1.20
2023-02-25T23:18:52.716Z,1.10
2023-02-25T23:21:20.118Z,1.00
2023-02-25T23:23:49.435Z,1.00
2023-02-25T23:26:20.005Z,1.00
2023-02-25T23:28:47.906Z,0.90
2023-02-25T23:31:28.575Z,1.00
2023-02-25T23:34:00.593Z,1.00
2023-02-25T23:36:28.114Z,1.00
2023-02-25T23:38:57.194Z,0.80
2023-02-25T23:41:25.171Z,0.80
2023-02-25T23:43:53.578Z,0.80
2023-02-25T23:46:21.214Z,0.70
2023-02-25T23:48:47.929Z,0.60
2023-02-25T23:51:15.317Z,0.50
2023-02-25T23:53:42.157Z,0.50
2023-02-25T23:56:10.862Z,0.50
2023-02-25T23:58:38.406Z,0.60
